Adams, WI

3:05 PM CDT on May 25, 2015 (GMT -0500)
Rural Adams County | | Change Station
CLOSE
Current Station
Personal Weather Station
Location: Adams, WI
Elevation: 997 ft
Nearby Weather Stations

Elev 997 ft 43.85 °N, 89.77 °W | Updated 2 seconds ago

Mostly Cloudy
Mostly Cloudy
77.9 °F
Feels Like 80 °F
N
3.0
Wind Variable Wind from South
Gusts 6.9 mph

Today
High -- | Low -- °F
--% Chance of Precip.
Yesterday
High -- | Low -- °F
Precip. -- in
5:24 AM 8:28 PM
Waxing Crescent, 51% visible
Pressure 29.76 in
Visibility 10.0 miles
Clouds Few 3700 ft
Heat Index 80 °F
Dew Point 63 °F
Humidity 61%
Rainfall 0.40 in
Snow Depth Not available.
UV 8 out of 12
Pollen .90 out of 12
Air Quality Not available.
Flu Activity Sporadic
METAR KVOK 251958Z AUTO 22014G19KT 10SM FEW037 25/20 A2976 RMK AO2 PK WND 21026/19 SLP077 T02480195

More Conditions Fewer Conditions

Pressure 29.76 in
Visibility 10.0 miles
Clouds Few 3700 ft
Heat Index 80 °F
Dew Point 63 °F
Humidity 61%
Rainfall 0.40 in
Snow Depth Not available.
UV 8 out of 12
Pollen .90 out of 12
Air Quality Not available.
Flu Activity Sporadic
METAR KVOK 251958Z AUTO 22014G19KT 10SM FEW037 25/20 A2976 RMK AO2 PK WND 21026/19 SLP077 T02480195

More Conditions Fewer Conditions

10-Day Weather Forecast

Almanac

Astronomy

May. 25, 2015 Rise Set
Actual Time
Civil Twilight
Nautical Twilight
Astronomical Twilight
Moon
Length of Visible Light
Length of Day
Tomorrow will be .
, % of the Moon is Illuminated

Today's Extremes

State Highs State Lows

Community

WunderPhotos

Upload Photos

1,824,115 photos uploaded!

WunderBlogs® & News

Nearby

Air Quality

  Air Quality AQ Index Pollutant
Not available.

Snow Depth

Station Depth Elevation

Earthquake Activity

City Distance Mag. Time & Date
Minimum magnitude displayed is 2.5.

Coastal Water Temperatures

Place Temperature

Stations

Nearby Weather Stations

Station Location Temp. Windchill Dew Point Humidity Wind Precip. Elev Updated Type